sensor_id;sensor_type;location;lat;lon;timestamp;P1;durP1;ratioP1;P2;durP2;ratioP2
7160;SDS011;3622;53.576;9.978;2023-04-03T00:00:37;3.63;;;1.70;;
7160;SDS011;3622;53.576;9.978;2023-04-03T00:03:03;4.43;;;1.93;;
7160;SDS011;3622;53.576;9.978;2023-04-03T00:05:29;12.40;;;2.43;;
7160;SDS011;3622;53.576;9.978;2023-04-03T00:07:55;6.60;;;1.73;;
7160;SDS011;3622;53.576;9.978;2023-04-03T00:10:21;3.67;;;1.70;;
7160;SDS011;3622;53.576;9.978;2023-04-03T00:12:47;8.10;;;1.70;;
7160;SDS011;3622;53.576;9.978;2023-04-03T00:15:13;3.90;;;1.43;;
7160;SDS011;3622;53.576;9.978;2023-04-03T00:17:39;6.67;;;2.33;;
7160;SDS011;3622;53.576;9.978;2023-04-03T00:20:05;4.47;;;1.60;;
7160;SDS011;3622;53.576;9.978;2023-04-03T00:22:31;3.27;;;1.73;;
7160;SDS011;3622;53.576;9.978;2023-04-03T00:24:57;6.10;;;1.90;;
7160;SDS011;3622;53.576;9.978;2023-04-03T00:27:23;6.67;;;2.03;;
7160;SDS011;3622;53.576;9.978;2023-04-03T00:29:49;3.30;;;1.70;;
7160;SDS011;3622;53.576;9.978;2023-04-03T00:32:15;3.47;;;1.53;;
7160;SDS011;3622;53.576;9.978;2023-04-03T00:34:41;6.00;;;2.27;;
7160;SDS011;3622;53.576;9.978;2023-04-03T00:37:07;5.20;;;1.70;;
7160;SDS011;3622;53.576;9.978;2023-04-03T00:39:33;7.53;;;2.30;;
7160;SDS011;3622;53.576;9.978;2023-04-03T00:41:59;5.63;;;1.93;;
7160;SDS011;3622;53.576;9.978;2023-04-03T00:47:01;4.10;;;1.70;;
7160;SDS011;3622;53.576;9.978;2023-04-03T00:49:29;2.63;;;2.27;;
7160;SDS011;3622;53.576;9.978;2023-04-03T00:51:55;5.80;;;2.53;;
7160;SDS011;3622;53.576;9.978;2023-04-03T00:54:21;3.37;;;2.17;;
7160;SDS011;3622;53.576;9.978;2023-04-03T00:56:48;6.60;;;2.30;;
7160;SDS011;3622;53.576;9.978;2023-04-03T00:59:15;2.73;;;2.40;;
7160;SDS011;3622;53.576;9.978;2023-04-03T01:01:42;8.17;;;2.10;;
7160;SDS011;3622;53.576;9.978;2023-04-03T01:04:27;5.13;;;2.07;;
7160;SDS011;3622;53.576;9.978;2023-04-03T01:06:54;4.80;;;2.20;;
7160;SDS011;3622;53.576;9.978;2023-04-03T01:09:21;3.77;;;2.60;;
7160;SDS011;3622;53.576;9.978;2023-04-03T01:11:47;6.87;;;2.03;;
7160;SDS011;3622;53.576;9.978;2023-04-03T01:14:13;5.67;;;2.57;;
7160;SDS011;3622;53.576;9.978;2023-04-03T01:16:39;3.93;;;2.00;;
7160;SDS011;3622;53.576;9.978;2023-04-03T01:19:06;8.97;;;2.03;;
7160;SDS011;3622;53.576;9.978;2023-04-03T01:24:07;2.90;;;2.13;;
7160;SDS011;3622;53.576;9.978;2023-04-03T01:26:36;3.53;;;2.10;;
7160;SDS011;3622;53.576;9.978;2023-04-03T01:29:02;6.20;;;1.97;;
7160;SDS011;3622;53.576;9.978;2023-04-03T01:31:40;5.60;;;2.10;;
7160;SDS011;3622;53.576;9.978;2023-04-03T01:34:06;2.10;;;1.90;;
7160;SDS011;3622;53.576;9.978;2023-04-03T01:36:32;3.67;;;1.80;;
7160;SDS011;3622;53.576;9.978;2023-04-03T01:38:59;3.20;;;2.00;;
7160;SDS011;3622;53.576;9.978;2023-04-03T01:41:25;5.67;;;2.47;;
7160;SDS011;3622;53.576;9.978;2023-04-03T01:43:51;3.00;;;1.93;;
7160;SDS011;3622;53.576;9.978;2023-04-03T01:46:17;4.83;;;2.10;;
7160;SDS011;3622;53.576;9.978;2023-04-03T01:48:43;4.37;;;1.90;;
7160;SDS011;3622;53.576;9.978;2023-04-03T01:51:09;6.07;;;1.80;;
7160;SDS011;3622;53.576;9.978;2023-04-03T01:53:35;2.10;;;1.93;;
7160;SDS011;3622;53.576;9.978;2023-04-03T01:56:02;9.40;;;2.53;;
7160;SDS011;3622;53.576;9.978;2023-04-03T01:58:28;7.27;;;2.30;;
7160;SDS011;3622;53.576;9.978;2023-04-03T02:00:54;3.60;;;1.80;;
7160;SDS011;3622;53.576;9.978;2023-04-03T02:03:20;4.97;;;2.40;;
7160;SDS011;3622;53.576;9.978;2023-04-03T02:05:46;7.70;;;2.27;;
7160;SDS011;3622;53.576;9.978;2023-04-03T02:08:12;3.70;;;2.00;;
7160;SDS011;3622;53.576;9.978;2023-04-03T02:10:38;8.13;;;2.30;;
7160;SDS011;3622;53.576;9.978;2023-04-03T02:13:04;5.03;;;2.30;;
7160;SDS011;3622;53.576;9.978;2023-04-03T02:15:30;5.57;;;2.60;;
7160;SDS011;3622;53.576;9.978;2023-04-03T02:17:56;5.20;;;2.67;;
7160;SDS011;3622;53.576;9.978;2023-04-03T02:20:22;4.47;;;3.10;;
7160;SDS011;3622;53.576;9.978;2023-04-03T02:22:48;8.93;;;4.20;;
7160;SDS011;3622;53.576;9.978;2023-04-03T02:25:14;3.43;;;2.27;;
7160;SDS011;3622;53.576;9.978;2023-04-03T02:27:40;5.10;;;2.80;;
7160;SDS011;3622;53.576;9.978;2023-04-03T02:30:06;3.03;;;2.53;;
7160;SDS011;3622;53.576;9.978;2023-04-03T02:32:35;4.70;;;1.60;;
7160;SDS011;3622;53.576;9.978;2023-04-03T02:35:01;5.60;;;2.20;;
7160;SDS011;3622;53.576;9.978;2023-04-03T02:37:27;14.20;;;6.40;;
7160;SDS011;3622;53.576;9.978;2023-04-03T02:39:53;9.57;;;4.20;;
7160;SDS011;3622;53.576;9.978;2023-04-03T02:42:19;12.07;;;6.50;;
7160;SDS011;3622;53.576;9.978;2023-04-03T02:44:45;6.63;;;3.40;;
7160;SDS011;3622;53.576;9.978;2023-04-03T02:47:11;8.33;;;2.70;;
7160;SDS011;3622;53.576;9.978;2023-04-03T02:49:37;2.47;;;2.27;;
7160;SDS011;3622;53.576;9.978;2023-04-03T02:52:03;4.03;;;3.00;;
7160;SDS011;3622;53.576;9.978;2023-04-03T02:54:29;5.07;;;2.40;;
7160;SDS011;3622;53.576;9.978;2023-04-03T02:56:55;7.20;;;2.63;;
7160;SDS011;3622;53.576;9.978;2023-04-03T02:59:22;4.00;;;2.70;;
7160;SDS011;3622;53.576;9.978;2023-04-03T03:01:48;6.70;;;3.77;;
7160;SDS011;3622;53.576;9.978;2023-04-03T03:04:14;6.17;;;2.50;;
7160;SDS011;3622;53.576;9.978;2023-04-03T03:06:40;7.67;;;2.40;;
7160;SDS011;3622;53.576;9.978;2023-04-03T03:09:06;3.87;;;2.43;;
7160;SDS011;3622;53.576;9.978;2023-04-03T03:11:32;4.20;;;2.50;;
7160;SDS011;3622;53.576;9.978;2023-04-03T03:13:58;11.40;;;2.20;;
7160;SDS011;3622;53.576;9.978;2023-04-03T03:16:24;5.50;;;2.10;;
7160;SDS011;3622;53.576;9.978;2023-04-03T03:18:50;8.67;;;1.93;;
7160;SDS011;3622;53.576;9.978;2023-04-03T03:21:16;7.37;;;4.70;;
7160;SDS011;3622;53.576;9.978;2023-04-03T03:23:42;5.50;;;3.03;;
7160;SDS011;3622;53.576;9.978;2023-04-03T03:26:09;6.30;;;2.90;;
7160;SDS011;3622;53.576;9.978;2023-04-03T03:28:35;7.20;;;2.10;;
7160;SDS011;3622;53.576;9.978;2023-04-03T03:31:01;7.20;;;3.20;;
7160;SDS011;3622;53.576;9.978;2023-04-03T03:33:28;4.00;;;3.30;;
7160;SDS011;3622;53.576;9.978;2023-04-03T03:35:54;8.00;;;2.53;;
7160;SDS011;3622;53.576;9.978;2023-04-03T03:38:21;4.67;;;4.27;;
7160;SDS011;3622;53.576;9.978;2023-04-03T03:40:48;8.97;;;4.37;;
7160;SDS011;3622;53.576;9.978;2023-04-03T03:43:14;6.73;;;2.47;;
7160;SDS011;3622;53.576;9.978;2023-04-03T03:45:40;3.13;;;2.27;;
7160;SDS011;3622;53.576;9.978;2023-04-03T03:48:06;9.67;;;2.33;;
7160;SDS011;3622;53.576;9.978;2023-04-03T03:50:32;3.83;;;2.33;;
7160;SDS011;3622;53.576;9.978;2023-04-03T03:52:58;5.90;;;3.80;;
7160;SDS011;3622;53.576;9.978;2023-04-03T03:55:24;3.97;;;2.83;;
7160;SDS011;3622;53.576;9.978;2023-04-03T03:57:50;2.40;;;2.20;;
7160;SDS011;3622;53.576;9.978;2023-04-03T04:00:16;6.23;;;3.10;;
7160;SDS011;3622;53.576;9.978;2023-04-03T04:02:43;6.07;;;4.10;;
7160;SDS011;3622;53.576;9.978;2023-04-03T04:05:09;4.43;;;2.50;;
7160;SDS011;3622;53.576;9.978;2023-04-03T04:07:35;5.70;;;2.60;;
7160;SDS011;3622;53.576;9.978;2023-04-03T04:10:01;9.90;;;2.53;;
7160;SDS011;3622;53.576;9.978;2023-04-03T04:12:27;6.50;;;2.90;;
7160;SDS011;3622;53.576;9.978;2023-04-03T04:14:53;2.57;;;2.37;;
7160;SDS011;3622;53.576;9.978;2023-04-03T04:17:19;3.20;;;1.80;;
7160;SDS011;3622;53.576;9.978;2023-04-03T04:19:45;9.30;;;3.00;;
7160;SDS011;3622;53.576;9.978;2023-04-03T04:22:11;4.37;;;2.07;;
7160;SDS011;3622;53.576;9.978;2023-04-03T04:24:37;8.70;;;2.70;;
7160;SDS011;3622;53.576;9.978;2023-04-03T04:27:03;6.37;;;2.67;;
7160;SDS011;3622;53.576;9.978;2023-04-03T04:29:29;3.10;;;2.10;;
7160;SDS011;3622;53.576;9.978;2023-04-03T04:32:00;5.03;;;2.67;;
7160;SDS011;3622;53.576;9.978;2023-04-03T04:34:26;6.27;;;3.07;;
7160;SDS011;3622;53.576;9.978;2023-04-03T04:36:51;8.10;;;3.00;;
7160;SDS011;3622;53.576;9.978;2023-04-03T04:39:18;8.63;;;3.00;;
7160;SDS011;3622;53.576;9.978;2023-04-03T04:41:43;3.10;;;2.63;;
7160;SDS011;3622;53.576;9.978;2023-04-03T04:44:09;6.70;;;2.80;;
7160;SDS011;3622;53.576;9.978;2023-04-03T04:46:35;4.93;;;3.90;;
7160;SDS011;3622;53.576;9.978;2023-04-03T04:49:01;6.57;;;2.80;;
7160;SDS011;3622;53.576;9.978;2023-04-03T04:51:27;9.13;;;3.50;;
7160;SDS011;3622;53.576;9.978;2023-04-03T04:53:53;5.40;;;3.30;;
7160;SDS011;3622;53.576;9.978;2023-04-03T04:56:19;7.37;;;2.70;;
7160;SDS011;3622;53.576;9.978;2023-04-03T04:58:45;4.93;;;2.60;;
7160;SDS011;3622;53.576;9.978;2023-04-03T05:01:11;7.00;;;2.90;;
7160;SDS011;3622;53.576;9.978;2023-04-03T05:03:37;5.77;;;3.03;;
7160;SDS011;3622;53.576;9.978;2023-04-03T05:06:03;3.40;;;2.40;;
7160;SDS011;3622;53.576;9.978;2023-04-03T05:08:30;3.17;;;2.53;;
7160;SDS011;3622;53.576;9.978;2023-04-03T05:10:56;7.23;;;3.33;;
7160;SDS011;3622;53.576;9.978;2023-04-03T05:13:22;7.20;;;3.20;;
7160;SDS011;3622;53.576;9.978;2023-04-03T05:15:48;6.37;;;3.90;;
7160;SDS011;3622;53.576;9.978;2023-04-03T05:18:14;3.33;;;3.03;;
7160;SDS011;3622;53.576;9.978;2023-04-03T05:20:40;7.87;;;2.83;;
7160;SDS011;3622;53.576;9.978;2023-04-03T05:23:08;6.90;;;3.17;;
7160;SDS011;3622;53.576;9.978;2023-04-03T05:25:34;4.53;;;2.77;;
7160;SDS011;3622;53.576;9.978;2023-04-03T05:28:02;6.73;;;3.47;;
7160;SDS011;3622;53.576;9.978;2023-04-03T05:30:28;5.73;;;2.60;;
7160;SDS011;3622;53.576;9.978;2023-04-03T05:32:54;2.50;;;2.30;;
7160;SDS011;3622;53.576;9.978;2023-04-03T05:35:20;7.00;;;2.70;;
7160;SDS011;3622;53.576;9.978;2023-04-03T05:37:46;8.37;;;3.20;;
7160;SDS011;3622;53.576;9.978;2023-04-03T05:40:12;8.63;;;2.57;;
7160;SDS011;3622;53.576;9.978;2023-04-03T05:42:38;5.17;;;2.10;;
7160;SDS011;3622;53.576;9.978;2023-04-03T05:45:04;3.93;;;1.63;;
7160;SDS011;3622;53.576;9.978;2023-04-03T05:47:31;4.53;;;2.20;;
7160;SDS011;3622;53.576;9.978;2023-04-03T05:49:57;5.50;;;2.13;;
7160;SDS011;3622;53.576;9.978;2023-04-03T05:52:25;2.30;;;2.20;;
7160;SDS011;3622;53.576;9.978;2023-04-03T05:54:51;3.33;;;1.50;;
7160;SDS011;3622;53.576;9.978;2023-04-03T05:57:17;2.50;;;2.30;;
7160;SDS011;3622;53.576;9.978;2023-04-03T05:59:44;2.57;;;1.97;;
7160;SDS011;3622;53.576;9.978;2023-04-03T06:02:11;3.67;;;2.90;;
7160;SDS011;3622;53.576;9.978;2023-04-03T06:04:38;3.30;;;2.33;;
7160;SDS011;3622;53.576;9.978;2023-04-03T06:07:04;15.77;;;2.50;;
7160;SDS011;3622;53.576;9.978;2023-04-03T06:09:30;2.33;;;2.13;;
7160;SDS011;3622;53.576;9.978;2023-04-03T06:11:57;4.20;;;2.80;;
7160;SDS011;3622;53.576;9.978;2023-04-03T06:14:24;2.60;;;1.93;;
7160;SDS011;3622;53.576;9.978;2023-04-03T06:16:50;2.80;;;2.40;;
7160;SDS011;3622;53.576;9.978;2023-04-03T06:19:16;3.10;;;2.37;;
7160;SDS011;3622;53.576;9.978;2023-04-03T06:21:42;3.77;;;2.10;;
7160;SDS011;3622;53.576;9.978;2023-04-03T06:24:09;3.23;;;2.10;;
7160;SDS011;3622;53.576;9.978;2023-04-03T06:26:35;2.20;;;2.10;;
7160;SDS011;3622;53.576;9.978;2023-04-03T06:29:01;3.50;;;2.40;;
7160;SDS011;3622;53.576;9.978;2023-04-03T06:31:27;6.17;;;2.40;;
7160;SDS011;3622;53.576;9.978;2023-04-03T06:33:53;6.60;;;2.63;;
7160;SDS011;3622;53.576;9.978;2023-04-03T06:36:20;3.07;;;2.60;;
7160;SDS011;3622;53.576;9.978;2023-04-03T06:38:46;5.50;;;2.70;;
7160;SDS011;3622;53.576;9.978;2023-04-03T06:41:12;9.70;;;2.60;;
7160;SDS011;3622;53.576;9.978;2023-04-03T06:43:38;3.60;;;2.60;;
7160;SDS011;3622;53.576;9.978;2023-04-03T06:46:05;4.53;;;2.50;;
7160;SDS011;3622;53.576;9.978;2023-04-03T06:48:31;4.60;;;2.80;;
7160;SDS011;3622;53.576;9.978;2023-04-03T06:50:57;4.43;;;3.23;;
7160;SDS011;3622;53.576;9.978;2023-04-03T06:53:23;2.53;;;2.33;;
7160;SDS011;3622;53.576;9.978;2023-04-03T06:55:49;4.73;;;2.60;;
7160;SDS011;3622;53.576;9.978;2023-04-03T06:58:15;2.20;;;1.97;;
7160;SDS011;3622;53.576;9.978;2023-04-03T07:00:42;2.60;;;2.20;;
7160;SDS011;3622;53.576;9.978;2023-04-03T07:03:08;4.03;;;2.23;;
7160;SDS011;3622;53.576;9.978;2023-04-03T07:05:34;4.20;;;2.37;;
7160;SDS011;3622;53.576;9.978;2023-04-03T07:08:00;2.20;;;1.90;;
7160;SDS011;3622;53.576;9.978;2023-04-03T07:10:26;7.73;;;2.10;;
7160;SDS011;3622;53.576;9.978;2023-04-03T07:12:52;6.07;;;2.63;;
7160;SDS011;3622;53.576;9.978;2023-04-03T07:15:18;3.13;;;1.90;;
7160;SDS011;3622;53.576;9.978;2023-04-03T07:17:44;1.77;;;1.27;;
7160;SDS011;3622;53.576;9.978;2023-04-03T07:20:11;2.80;;;1.40;;
7160;SDS011;3622;53.576;9.978;2023-04-03T07:22:37;7.03;;;2.27;;
7160;SDS011;3622;53.576;9.978;2023-04-03T07:25:03;2.57;;;1.67;;
7160;SDS011;3622;53.576;9.978;2023-04-03T07:27:31;6.27;;;3.00;;
7160;SDS011;3622;53.576;9.978;2023-04-03T07:29:58;4.90;;;1.80;;
7160;SDS011;3622;53.576;9.978;2023-04-03T07:32:24;1.83;;;1.20;;
7160;SDS011;3622;53.576;9.978;2023-04-03T07:34:50;6.57;;;3.20;;
7160;SDS011;3622;53.576;9.978;2023-04-03T07:37:16;2.80;;;1.47;;
7160;SDS011;3622;53.576;9.978;2023-04-03T07:39:43;1.57;;;1.33;;
7160;SDS011;3622;53.576;9.978;2023-04-03T07:42:10;3.97;;;1.50;;
7160;SDS011;3622;53.576;9.978;2023-04-03T07:44:37;4.73;;;1.33;;
7160;SDS011;3622;53.576;9.978;2023-04-03T07:47:03;1.83;;;1.17;;
7160;SDS011;3622;53.576;9.978;2023-04-03T07:49:29;1.63;;;0.93;;
7160;SDS011;3622;53.576;9.978;2023-04-03T07:51:55;2.60;;;1.03;;
7160;SDS011;3622;53.576;9.978;2023-04-03T07:54:21;2.97;;;1.40;;
7160;SDS011;3622;53.576;9.978;2023-04-03T07:56:46;1.20;;;1.10;;
7160;SDS011;3622;53.576;9.978;2023-04-03T07:59:13;2.23;;;1.23;;
7160;SDS011;3622;53.576;9.978;2023-04-03T08:01:39;2.33;;;1.03;;
7160;SDS011;3622;53.576;9.978;2023-04-03T08:04:05;2.47;;;0.80;;
7160;SDS011;3622;53.576;9.978;2023-04-03T08:06:31;4.10;;;1.40;;
7160;SDS011;3622;53.576;9.978;2023-04-03T08:09:00;4.47;;;2.17;;
7160;SDS011;3622;53.576;9.978;2023-04-03T08:11:26;3.10;;;1.60;;
7160;SDS011;3622;53.576;9.978;2023-04-03T08:13:53;4.27;;;1.27;;
7160;SDS011;3622;53.576;9.978;2023-04-03T08:16:20;2.23;;;1.20;;
7160;SDS011;3622;53.576;9.978;2023-04-03T08:18:46;3.13;;;1.47;;
7160;SDS011;3622;53.576;9.978;2023-04-03T08:21:12;2.83;;;1.20;;
7160;SDS011;3622;53.576;9.978;2023-04-03T08:23:39;1.37;;;1.27;;
7160;SDS011;3622;53.576;9.978;2023-04-03T08:26:07;1.53;;;1.30;;
7160;SDS011;3622;53.576;9.978;2023-04-03T08:28:33;2.00;;;1.00;;
7160;SDS011;3622;53.576;9.978;2023-04-03T08:31:02;1.97;;;1.50;;
7160;SDS011;3622;53.576;9.978;2023-04-03T08:33:30;3.20;;;0.97;;
7160;SDS011;3622;53.576;9.978;2023-04-03T08:35:56;3.07;;;1.10;;
7160;SDS011;3622;53.576;9.978;2023-04-03T08:38:22;1.70;;;1.27;;
7160;SDS011;3622;53.576;9.978;2023-04-03T08:40:59;1.20;;;0.93;;
7160;SDS011;3622;53.576;9.978;2023-04-03T08:45:57;1.83;;;0.80;;
7160;SDS011;3622;53.576;9.978;2023-04-03T08:48:33;2.07;;;1.90;;
7160;SDS011;3622;53.576;9.978;2023-04-03T08:51:01;3.10;;;1.53;;
7160;SDS011;3622;53.576;9.978;2023-04-03T08:53:30;4.43;;;1.10;;
7160;SDS011;3622;53.576;9.978;2023-04-03T08:55:57;1.83;;;1.53;;
7160;SDS011;3622;53.576;9.978;2023-04-03T08:58:30;1.83;;;1.20;;
7160;SDS011;3622;53.576;9.978;2023-04-03T09:00:59;2.30;;;1.60;;
7160;SDS011;3622;53.576;9.978;2023-04-03T09:03:28;1.30;;;1.00;;
7160;SDS011;3622;53.576;9.978;2023-04-03T09:10:57;1.30;;;1.07;;
7160;SDS011;3622;53.576;9.978;2023-04-03T09:13:26;4.60;;;1.00;;
7160;SDS011;3622;53.576;9.978;2023-04-03T09:15:56;1.50;;;1.40;;
7160;SDS011;3622;53.576;9.978;2023-04-03T09:18:30;3.33;;;1.10;;
7160;SDS011;3622;53.576;9.978;2023-04-03T09:21:17;1.73;;;0.90;;
7160;SDS011;3622;53.576;9.978;2023-04-03T09:23:46;2.13;;;1.93;;
7160;SDS011;3622;53.576;9.978;2023-04-03T09:26:23;1.83;;;1.00;;
7160;SDS011;3622;53.576;9.978;2023-04-03T09:28:51;1.33;;;1.00;;
7160;SDS011;3622;53.576;9.978;2023-04-03T09:31:22;4.50;;;1.00;;
7160;SDS011;3622;53.576;9.978;2023-04-03T09:33:50;2.50;;;0.90;;
7160;SDS011;3622;53.576;9.978;2023-04-03T09:39:14;2.93;;;1.10;;
7160;SDS011;3622;53.576;9.978;2023-04-03T09:41:42;1.23;;;0.67;;
7160;SDS011;3622;53.576;9.978;2023-04-03T09:44:19;2.13;;;0.70;;
7160;SDS011;3622;53.576;9.978;2023-04-03T09:46:46;2.00;;;0.93;;
7160;SDS011;3622;53.576;9.978;2023-04-03T09:49:12;2.70;;;1.00;;
7160;SDS011;3622;53.576;9.978;2023-04-03T09:51:38;2.70;;;0.80;;
7160;SDS011;3622;53.576;9.978;2023-04-03T09:56:51;1.30;;;0.60;;
7160;SDS011;3622;53.576;9.978;2023-04-03T09:59:18;1.30;;;1.00;;
7160;SDS011;3622;53.576;9.978;2023-04-03T10:02:04;1.20;;;1.00;;
7160;SDS011;3622;53.576;9.978;2023-04-03T10:04:41;0.80;;;0.60;;
7160;SDS011;3622;53.576;9.978;2023-04-03T10:09:56;2.60;;;1.30;;
7160;SDS011;3622;53.576;9.978;2023-04-03T10:12:22;2.13;;;0.70;;
7160;SDS011;3622;53.576;9.978;2023-04-03T10:14:55;1.63;;;0.60;;
7160;SDS011;3622;53.576;9.978;2023-04-03T10:25:04;2.37;;;1.00;;
7160;SDS011;3622;53.576;9.978;2023-04-03T10:27:40;1.00;;;0.70;;
7160;SDS011;3622;53.576;9.978;2023-04-03T10:32:54;1.13;;;0.60;;
7160;SDS011;3622;53.576;9.978;2023-04-03T10:35:36;1.73;;;0.63;;
7160;SDS011;3622;53.576;9.978;2023-04-03T10:38:04;2.03;;;0.60;;
7160;SDS011;3622;53.576;9.978;2023-04-03T10:43:18;1.00;;;0.67;;
7160;SDS011;3622;53.576;9.978;2023-04-03T10:51:19;0.93;;;0.73;;
7160;SDS011;3622;53.576;9.978;2023-04-03T10:54:00;1.97;;;0.97;;
7160;SDS011;3622;53.576;9.978;2023-04-03T10:56:36;0.80;;;0.60;;
7160;SDS011;3622;53.576;9.978;2023-04-03T11:01:57;2.07;;;0.90;;
7160;SDS011;3622;53.576;9.978;2023-04-03T11:04:26;2.90;;;0.90;;
7160;SDS011;3622;53.576;9.978;2023-04-03T11:06:56;8.00;;;5.73;;
7160;SDS011;3622;53.576;9.978;2023-04-03T11:09:25;2.20;;;1.10;;
7160;SDS011;3622;53.576;9.978;2023-04-03T11:11:56;0.90;;;0.60;;
7160;SDS011;3622;53.576;9.978;2023-04-03T11:14:30;1.30;;;0.77;;
7160;SDS011;3622;53.576;9.978;2023-04-03T11:19:49;1.13;;;0.80;;
7160;SDS011;3622;53.576;9.978;2023-04-03T11:22:18;2.80;;;1.10;;
7160;SDS011;3622;53.576;9.978;2023-04-03T11:24:51;1.00;;;0.90;;
7160;SDS011;3622;53.576;9.978;2023-04-03T11:27:20;3.17;;;0.87;;
7160;SDS011;3622;53.576;9.978;2023-04-03T11:29:49;2.30;;;1.10;;
7160;SDS011;3622;53.576;9.978;2023-04-03T11:35:00;1.23;;;1.13;;
7160;SDS011;3622;53.576;9.978;2023-04-03T11:37:29;1.10;;;0.60;;
7160;SDS011;3622;53.576;9.978;2023-04-03T11:40:02;2.73;;;1.20;;
7160;SDS011;3622;53.576;9.978;2023-04-03T11:42:37;2.33;;;0.93;;
7160;SDS011;3622;53.576;9.978;2023-04-03T11:47:50;1.50;;;0.80;;
7160;SDS011;3622;53.576;9.978;2023-04-03T11:55:42;1.10;;;0.87;;
7160;SDS011;3622;53.576;9.978;2023-04-03T11:58:14;2.73;;;0.60;;
7160;SDS011;3622;53.576;9.978;2023-04-03T12:05:55;1.40;;;0.60;;
7160;SDS011;3622;53.576;9.978;2023-04-03T12:11:13;0.83;;;0.73;;
7160;SDS011;3622;53.576;9.978;2023-04-03T12:13:42;0.90;;;0.77;;
7160;SDS011;3622;53.576;9.978;2023-04-03T12:22:04;3.70;;;0.77;;
7160;SDS011;3622;53.576;9.978;2023-04-03T12:34:55;1.73;;;1.10;;
7160;SDS011;3622;53.576;9.978;2023-04-03T12:48:06;0.90;;;0.70;;
7160;SDS011;3622;53.576;9.978;2023-04-03T12:50:38;2.30;;;1.90;;
7160;SDS011;3622;53.576;9.978;2023-04-03T12:53:07;3.87;;;0.90;;
7160;SDS011;3622;53.576;9.978;2023-04-03T12:55:37;2.10;;;1.10;;
7160;SDS011;3622;53.576;9.978;2023-04-03T12:58:23;2.90;;;1.30;;
7160;SDS011;3622;53.576;9.978;2023-04-03T13:03:49;2.00;;;1.00;;
7160;SDS011;3622;53.576;9.978;2023-04-03T13:06:22;0.90;;;0.73;;
7160;SDS011;3622;53.576;9.978;2023-04-03T13:08:50;4.40;;;1.10;;
7160;SDS011;3622;53.576;9.978;2023-04-03T13:11:16;1.10;;;0.80;;
7160;SDS011;3622;53.576;9.978;2023-04-03T13:13:56;1.07;;;0.90;;
7160;SDS011;3622;53.576;9.978;2023-04-03T13:16:22;1.13;;;0.77;;
7160;SDS011;3622;53.576;9.978;2023-04-03T13:18:52;1.67;;;0.70;;
7160;SDS011;3622;53.576;9.978;2023-04-03T13:21:23;2.40;;;1.13;;
7160;SDS011;3622;53.576;9.978;2023-04-03T13:23:51;0.70;;;0.50;;
7160;SDS011;3622;53.576;9.978;2023-04-03T13:26:18;1.33;;;1.13;;
7160;SDS011;3622;53.576;9.978;2023-04-03T13:28:45;1.90;;;1.60;;
7160;SDS011;3622;53.576;9.978;2023-04-03T13:33:39;2.70;;;0.60;;
7160;SDS011;3622;53.576;9.978;2023-04-03T13:36:29;1.10;;;0.80;;
7160;SDS011;3622;53.576;9.978;2023-04-03T13:39:00;2.37;;;1.20;;
7160;SDS011;3622;53.576;9.978;2023-04-03T13:41:30;1.90;;;0.90;;
7160;SDS011;3622;53.576;9.978;2023-04-03T13:43:56;2.33;;;0.70;;
7160;SDS011;3622;53.576;9.978;2023-04-03T13:46:24;1.87;;;0.90;;
7160;SDS011;3622;53.576;9.978;2023-04-03T13:48:52;1.77;;;1.37;;
7160;SDS011;3622;53.576;9.978;2023-04-03T13:51:20;4.00;;;2.70;;
7160;SDS011;3622;53.576;9.978;2023-04-03T13:53:51;1.20;;;0.53;;
7160;SDS011;3622;53.576;9.978;2023-04-03T13:58:57;1.47;;;0.60;;
7160;SDS011;3622;53.576;9.978;2023-04-03T14:01:24;3.10;;;2.00;;
7160;SDS011;3622;53.576;9.978;2023-04-03T14:06:17;1.10;;;0.80;;
7160;SDS011;3622;53.576;9.978;2023-04-03T14:08:43;3.20;;;0.60;;
7160;SDS011;3622;53.576;9.978;2023-04-03T14:11:14;2.33;;;2.10;;
7160;SDS011;3622;53.576;9.978;2023-04-03T14:13:41;0.70;;;0.50;;
7160;SDS011;3622;53.576;9.978;2023-04-03T14:16:07;2.00;;;0.90;;
7160;SDS011;3622;53.576;9.978;2023-04-03T14:18:33;1.10;;;0.90;;
7160;SDS011;3622;53.576;9.978;2023-04-03T14:20:59;4.50;;;1.37;;
7160;SDS011;3622;53.576;9.978;2023-04-03T14:23:25;2.80;;;0.77;;
7160;SDS011;3622;53.576;9.978;2023-04-03T14:25:51;1.27;;;0.80;;
7160;SDS011;3622;53.576;9.978;2023-04-03T14:28:19;1.77;;;1.03;;
7160;SDS011;3622;53.576;9.978;2023-04-03T14:30:45;1.13;;;0.83;;
7160;SDS011;3622;53.576;9.978;2023-04-03T14:33:17;1.00;;;0.80;;
7160;SDS011;3622;53.576;9.978;2023-04-03T14:35:43;2.60;;;1.03;;
7160;SDS011;3622;53.576;9.978;2023-04-03T14:38:29;3.40;;;1.27;;
7160;SDS011;3622;53.576;9.978;2023-04-03T14:40:56;0.90;;;0.60;;
7160;SDS011;3622;53.576;9.978;2023-04-03T14:43:22;1.40;;;1.03;;
7160;SDS011;3622;53.576;9.978;2023-04-03T14:45:48;2.33;;;0.93;;
7160;SDS011;3622;53.576;9.978;2023-04-03T14:48:17;1.00;;;0.90;;
7160;SDS011;3622;53.576;9.978;2023-04-03T14:50:44;1.90;;;0.83;;
7160;SDS011;3622;53.576;9.978;2023-04-03T14:53:10;5.53;;;0.87;;
7160;SDS011;3622;53.576;9.978;2023-04-03T14:55:37;1.10;;;0.90;;
7160;SDS011;3622;53.576;9.978;2023-04-03T14:58:03;1.43;;;0.90;;
7160;SDS011;3622;53.576;9.978;2023-04-03T15:00:29;3.07;;;0.90;;
7160;SDS011;3622;53.576;9.978;2023-04-03T15:02:55;0.97;;;0.80;;
7160;SDS011;3622;53.576;9.978;2023-04-03T15:05:21;1.77;;;0.90;;
7160;SDS011;3622;53.576;9.978;2023-04-03T15:07:49;1.17;;;0.90;;
7160;SDS011;3622;53.576;9.978;2023-04-03T15:10:16;2.80;;;0.97;;
7160;SDS011;3622;53.576;9.978;2023-04-03T15:12:43;1.20;;;1.10;;
7160;SDS011;3622;53.576;9.978;2023-04-03T15:15:09;2.40;;;0.70;;
7160;SDS011;3622;53.576;9.978;2023-04-03T15:17:36;1.73;;;0.90;;
7160;SDS011;3622;53.576;9.978;2023-04-03T15:20:02;1.33;;;1.13;;
7160;SDS011;3622;53.576;9.978;2023-04-03T15:22:28;2.50;;;1.00;;
7160;SDS011;3622;53.576;9.978;2023-04-03T15:24:54;1.30;;;1.00;;
7160;SDS011;3622;53.576;9.978;2023-04-03T15:27:20;1.60;;;1.10;;
7160;SDS011;3622;53.576;9.978;2023-04-03T15:29:46;0.90;;;0.70;;
7160;SDS011;3622;53.576;9.978;2023-04-03T15:32:12;0.97;;;0.87;;
7160;SDS011;3622;53.576;9.978;2023-04-03T15:34:39;1.73;;;0.87;;
7160;SDS011;3622;53.576;9.978;2023-04-03T15:37:05;3.60;;;0.70;;
7160;SDS011;3622;53.576;9.978;2023-04-03T15:39:31;1.20;;;1.00;;
7160;SDS011;3622;53.576;9.978;2023-04-03T15:41:57;1.00;;;0.73;;
7160;SDS011;3622;53.576;9.978;2023-04-03T15:44:30;2.40;;;0.90;;
7160;SDS011;3622;53.576;9.978;2023-04-03T15:46:57;0.90;;;0.70;;
7160;SDS011;3622;53.576;9.978;2023-04-03T15:49:23;1.40;;;1.27;;
7160;SDS011;3622;53.576;9.978;2023-04-03T15:51:49;2.30;;;1.00;;
7160;SDS011;3622;53.576;9.978;2023-04-03T15:54:15;2.70;;;2.07;;
7160;SDS011;3622;53.576;9.978;2023-04-03T15:56:41;5.53;;;2.80;;
7160;SDS011;3622;53.576;9.978;2023-04-03T15:59:07;1.30;;;0.90;;
7160;SDS011;3622;53.576;9.978;2023-04-03T16:01:33;1.70;;;1.10;;
7160;SDS011;3622;53.576;9.978;2023-04-03T16:04:00;1.20;;;1.07;;
7160;SDS011;3622;53.576;9.978;2023-04-03T16:06:26;2.60;;;0.70;;
7160;SDS011;3622;53.576;9.978;2023-04-03T16:08:54;2.63;;;0.80;;
7160;SDS011;3622;53.576;9.978;2023-04-03T16:11:22;1.57;;;0.70;;
7160;SDS011;3622;53.576;9.978;2023-04-03T16:13:48;3.37;;;0.93;;
7160;SDS011;3622;53.576;9.978;2023-04-03T16:16:14;3.47;;;1.10;;
7160;SDS011;3622;53.576;9.978;2023-04-03T16:18:40;1.37;;;0.90;;
7160;SDS011;3622;53.576;9.978;2023-04-03T16:21:06;1.80;;;1.33;;
7160;SDS011;3622;53.576;9.978;2023-04-03T16:23:33;1.90;;;1.17;;
7160;SDS011;3622;53.576;9.978;2023-04-03T16:25:59;2.20;;;0.83;;
7160;SDS011;3622;53.576;9.978;2023-04-03T16:28:25;1.50;;;1.00;;
7160;SDS011;3622;53.576;9.978;2023-04-03T16:30:51;3.00;;;1.23;;
7160;SDS011;3622;53.576;9.978;2023-04-03T16:33:17;1.10;;;1.00;;
7160;SDS011;3622;53.576;9.978;2023-04-03T16:35:46;1.50;;;0.70;;
7160;SDS011;3622;53.576;9.978;2023-04-03T16:38:13;3.90;;;0.93;;
7160;SDS011;3622;53.576;9.978;2023-04-03T16:40:40;2.50;;;1.33;;
7160;SDS011;3622;53.576;9.978;2023-04-03T16:43:06;1.00;;;0.60;;
7160;SDS011;3622;53.576;9.978;2023-04-03T16:45:32;2.00;;;1.30;;
7160;SDS011;3622;53.576;9.978;2023-04-03T16:47:58;1.47;;;0.90;;
7160;SDS011;3622;53.576;9.978;2023-04-03T16:50:24;1.30;;;0.97;;
7160;SDS011;3622;53.576;9.978;2023-04-03T16:52:50;2.83;;;0.97;;
7160;SDS011;3622;53.576;9.978;2023-04-03T16:55:16;3.60;;;1.00;;
7160;SDS011;3622;53.576;9.978;2023-04-03T16:57:42;0.90;;;0.77;;